DKEKS EDXW-EDXW
Flight info
| Callsign | DKEKS |
|---|---|
| Flight time | 0h 2m |
| Altitude | |
| Route | |
| Aircraft |
Departure
| Time | 2026-04-22 18:40 |
|---|---|
| Airport | Westerland Sylt Airport (EDXW) |
Arrival
| Time | 2026-04-22 18:42 |
|---|---|
| Airport | Westerland Sylt Airport (EDXW) |
| Time | Latitude | Longitude | Altitude | Speed | Heading |
|---|---|---|---|---|---|
| 2026-04-22 18:32 | 54.91456 | 8.32518 | 51 ft | 0 kts | 86° |
| 2026-04-22 18:33 | 54.91456 | 8.32523 | 51 ft | 4 kts | 111° |
| 2026-04-22 18:33 | 54.91432 | 8.32525 | 51 ft | 4 kts | 186° |
| 2026-04-22 18:34 | 54.91386 | 8.32519 | 51 ft | 18 kts | 181° |
| 2026-04-22 18:34 | 54.91215 | 8.32609 | 51 ft | 26 kts | 152° |
| 2026-04-22 18:34 | 54.91086 | 8.32746 | 51 ft | 8 kts | 134° |
| 2026-04-22 18:34 | 54.91076 | 8.32784 | 51 ft | 4 kts | 102° |
| 2026-04-22 18:35 | 54.91053 | 8.32895 | 51 ft | 19 kts | 117° |
| 2026-04-22 18:35 | 54.90966 | 8.33055 | 52 ft | 18 kts | 137° |
| 2026-04-22 18:35 | 54.90852 | 8.33189 | 51 ft | 22 kts | 161° |
| 2026-04-22 18:35 | 54.90686 | 8.33236 | 51 ft | 26 kts | 172° |
| 2026-04-22 18:36 | 54.90517 | 8.33268 | 51 ft | 25 kts | 165° |
| 2026-04-22 18:36 | 54.90363 | 8.33413 | 51 ft | 27 kts | 134° |
| 2026-04-22 18:36 | 54.90271 | 8.33669 | 51 ft | 27 kts | 104° |
| 2026-04-22 18:36 | 54.90241 | 8.33985 | 51 ft | 28 kts | 95° |
| 2026-04-22 18:37 | 54.90249 | 8.34298 | 51 ft | 2 kts | 92° |
| 2026-04-22 18:37 | 54.90258 | 8.34329 | 51 ft | 4 kts | 58° |
| 2026-04-22 18:37 | 54.90272 | 8.34367 | 51 ft | 4 kts | 59° |
| 2026-04-22 18:37 | 54.90299 | 8.34440 | 51 ft | 17 kts | 54° |
| 2026-04-22 18:38 | 54.90379 | 8.34590 | 51 ft | 17 kts | 44° |
| 2026-04-22 18:38 | 54.90464 | 8.34727 | 51 ft | 16 kts | 44° |
| 2026-04-22 18:38 | 54.90546 | 8.34856 | 52 ft | 15 kts | 39° |
| 2026-04-22 18:39 | 54.90802 | 8.34694 | 56 ft | 49 kts | 323° |
| 2026-04-22 18:39 | 54.91119 | 8.34310 | 172 ft | 60 kts | 324° |
| 2026-04-22 18:39 | 54.91472 | 8.33860 | 318 ft | 65 kts | 322° |
| 2026-04-22 18:39 | 54.91840 | 8.33388 | 470 ft | 69 kts | 324° |
| 2026-04-22 18:40 | 54.92299 | 8.33037 | 614 ft | 80 kts | 2° |
| 2026-04-22 18:40 | 54.92699 | 8.33835 | 767 ft | 95 kts | 53° |
| 2026-04-22 18:40 | 54.92861 | 8.34936 | 981 ft | 99 kts | 92° |
| 2026-04-22 18:40 | 54.92377 | 8.35834 | 1073 ft | 106 kts | 141° |
| 2026-04-22 18:41 | 54.91784 | 8.36577 | 1176 ft | 104 kts | 149° |
| 2026-04-22 18:41 | 54.91167 | 8.37242 | 1244 ft | 106 kts | 150° |
| 2026-04-22 18:41 | 54.90532 | 8.37930 | 1292 ft | 109 kts | 148° |
| 2026-04-22 18:41 | 54.89923 | 8.38595 | 1253 ft | 100 kts | 161° |
| 2026-04-22 18:42 | 54.89387 | 8.38426 | 1192 ft | 64 kts | 251° |
| 2026-04-22 18:42 | 54.89088 | 8.37739 | 1019 ft | 80 kts | 248° |
| 2026-04-22 18:42 | 54.89033 | 8.36900 | 869 ft | 68 kts | 305° |
| 2026-04-22 18:42 | 54.89297 | 8.36460 | 760 ft | 48 kts | 325° |
| 2026-04-22 18:43 | 54.89577 | 8.36124 | 612 ft | 47 kts | 328° |
| 2026-04-22 18:43 | 54.89866 | 8.35821 | 433 ft | 51 kts | 324° |
| 2026-04-22 18:43 | 54.90169 | 8.35468 | 210 ft | 51 kts | 324° |
| 2026-04-22 18:43 | 54.90431 | 8.35152 | 64 ft | 39 kts | 323° |
| 2026-04-22 18:44 | 54.90604 | 8.34936 | 52 ft | 34 kts | 326° |
| 2026-04-22 18:44 | 54.90885 | 8.34600 | 100 ft | 60 kts | 323° |
| 2026-04-22 18:44 | 54.91244 | 8.34163 | 285 ft | 63 kts | 324° |
| 2026-04-22 18:44 | 54.91583 | 8.33736 | 522 ft | 58 kts | 323° |
| 2026-04-22 18:45 | 54.91898 | 8.33305 | 725 ft | 57 kts | 321° |
| 2026-04-22 18:45 | 54.92271 | 8.33178 | 878 ft | 73 kts | 28° |
| 2026-04-22 18:45 | 54.92531 | 8.34093 | 1021 ft | 90 kts | 57° |
| 2026-04-22 18:45 | 54.92772 | 8.35103 | 1233 ft | 92 kts | 66° |
| 2026-04-22 18:46 | 54.92427 | 8.35953 | 1394 ft | 108 kts | 148° |
| 2026-04-22 18:46 | 54.91681 | 8.36670 | 1369 ft | 134 kts | 156° |
| 2026-04-22 18:46 | 54.90852 | 8.37377 | 1303 ft | 128 kts | 155° |
| 2026-04-22 18:46 | 54.90094 | 8.38027 | 1197 ft | 119 kts | 165° |
| 2026-04-22 18:47 | 54.89356 | 8.37444 | 869 ft | 130 kts | 253° |
| 2026-04-22 18:47 | 54.89593 | 8.36150 | 630 ft | 127 kts | 322° |
| 2026-04-22 18:47 | 54.90337 | 8.35260 | 119 ft | 132 kts | 324° |
| 2026-04-22 18:47 | 54.91084 | 8.34344 | 60 ft | 128 kts | 324° |
| 2026-04-22 18:48 | 54.91795 | 8.33460 | 104 ft | 117 kts | 323° |
| 2026-04-22 18:48 | 54.92227 | 8.32959 | 848 ft | 61 kts | 0° |
| 2026-04-22 18:48 | 54.92573 | 8.33708 | 905 ft | 92 kts | 54° |
| 2026-04-22 18:48 | 54.92766 | 8.34836 | 1059 ft | 104 kts | 75° |
| 2026-04-22 18:49 | 54.92460 | 8.36132 | 1071 ft | 132 kts | 121° |
| 2026-04-22 18:49 | 54.91904 | 8.37487 | 1119 ft | 140 kts | 123° |
| 2026-04-22 18:49 | 54.91344 | 8.38857 | 1238 ft | 138 kts | 121° |
| 2026-04-22 18:49 | 54.90809 | 8.40247 | 1284 ft | 143 kts | 122° |
| 2026-04-22 18:50 | 54.90226 | 8.41684 | 1290 ft | 146 kts | 123° |
| 2026-04-22 18:50 | 54.89655 | 8.43098 | 1365 ft | 141 kts | 122° |
| 2026-04-22 18:50 | 54.89092 | 8.44515 | 1394 ft | 142 kts | 122° |
| 2026-04-22 18:50 | 54.88740 | 8.46043 | 1455 ft | 136 kts | 98° |
| 2026-04-22 18:51 | 54.88563 | 8.47658 | 1465 ft | 139 kts | 96° |
| 2026-04-22 18:51 | 54.88413 | 8.49343 | 1394 ft | 142 kts | 92° |
| 2026-04-22 18:51 | 54.88382 | 8.51032 | 1403 ft | 141 kts | 85° |
| 2026-04-22 18:51 | 54.88391 | 8.52753 | 1302 ft | 144 kts | 82° |
| 2026-04-22 18:52 | 54.88417 | 8.54518 | 1186 ft | 147 kts | 85° |
| 2026-04-22 18:52 | 54.88479 | 8.56216 | 1315 ft | 138 kts | 81° |
| 2026-04-22 18:52 | 54.88598 | 8.57862 | 1367 ft | 138 kts | 75° |
| 2026-04-22 18:52 | 54.88661 | 8.59519 | 1453 ft | 134 kts | 84° |
| 2026-04-22 18:53 | 54.88582 | 8.61074 | 1684 ft | 131 kts | 101° |
| 2026-04-22 18:53 | 54.88042 | 8.62407 | 1745 ft | 144 kts | 143° |
| 2026-04-22 18:53 | 54.87241 | 8.63329 | 2033 ft | 137 kts | 144° |
| 2026-04-22 18:53 | 54.86446 | 8.64257 | 2228 ft | 137 kts | 148° |
| 2026-04-22 18:54 | 54.85672 | 8.65100 | 2485 ft | 129 kts | 148° |
| 2026-04-22 18:54 | 54.84881 | 8.65895 | 2671 ft | 132 kts | 151° |
| 2026-04-22 18:54 | 54.84080 | 8.66645 | 2786 ft | 130 kts | 152° |
| 2026-04-22 18:54 | 54.83268 | 8.67381 | 2880 ft | 132 kts | 150° |
| 2026-04-22 18:55 | 54.82471 | 8.68138 | 3043 ft | 131 kts | 149° |
| 2026-04-22 18:55 | 54.81664 | 8.68866 | 3207 ft | 134 kts | 150° |
| 2026-04-22 18:55 | 54.80849 | 8.69697 | 3255 ft | 137 kts | 148° |
| 2026-04-22 18:55 | 54.80041 | 8.70561 | 3381 ft | 134 kts | 143° |
| 2026-04-22 18:56 | 54.79273 | 8.71450 | 3569 ft | 131 kts | 143° |
| 2026-04-22 18:56 | 54.78514 | 8.72314 | 3720 ft | 132 kts | 144° |
| 2026-04-22 18:56 | 54.77734 | 8.73124 | 3907 ft | 130 kts | 146° |
| 2026-04-22 18:56 | 54.76959 | 8.73915 | 4049 ft | 131 kts | 145° |
| 2026-04-22 18:57 | 54.76164 | 8.74686 | 4261 ft | 128 kts | 150° |
| 2026-04-22 18:57 | 54.75387 | 8.75354 | 4505 ft | 123 kts | 150° |
| 2026-04-22 18:57 | 54.74616 | 8.76007 | 4612 ft | 130 kts | 149° |
| 2026-04-22 18:57 | 54.73831 | 8.76719 | 4795 ft | 128 kts | 144° |
| 2026-04-22 18:58 | 54.73077 | 8.77527 | 4977 ft | 126 kts | 143° |
| 2026-04-22 18:58 | 54.72340 | 8.78324 | 5178 ft | 126 kts | 144° |